Time;durP1;ratioP1;P1;durP2;ratioP2;P2;SDS_P1;SDS_P2;PMS_P1;PMS_P2;Temp;Humidity;BMP_temperature;BMP_pressure;BME280_temperature;BME280_humidity;BME280_pressure;Samples;Min_cycle;Max_cycle;Signal;HPM_P1;HPM_P2
2022/09/21 00:01:29;;;;;;;4.18;3.75;;;;;;;7.56;100.00;97817.13;5115335;27;20076;-79
2022/09/21 00:03:57;;;;;;;6.63;3.72;;;;;;;7.56;100.00;97817.13;5098030;27;20039;-79
2022/09/21 00:06:24;;;;;;;6.65;4.00;;;;;;;7.48;100.00;97819.25;5115199;27;20027;-79
2022/09/21 00:08:50;;;;;;;6.47;3.50;;;;;;;7.28;100.00;97809.50;5115169;27;20030;-79
2022/09/21 00:11:23;;;;;;;8.07;3.97;;;;;;;7.35;100.00;97834.91;5097984;27;20035;-79
2022/09/21 00:13:57;;;;;;;4.55;3.83;;;;;;;7.42;100.00;97824.84;5133425;27;20051;-78
2022/09/21 00:16:23;;;;;;;7.25;4.00;;;;;;;7.36;100.00;97823.31;5114985;27;20122;-79
2022/09/21 00:18:49;;;;;;;5.38;3.90;;;;;;;7.35;100.00;97831.41;5098035;27;20110;-79
2022/09/21 00:21:16;;;;;;;8.48;3.88;;;;;;;7.23;100.00;97823.97;5097871;27;20058;-79
2022/09/21 00:23:42;;;;;;;5.38;3.78;;;;;;;7.35;100.00;97839.38;5097743;27;20051;-79
2022/09/21 00:26:11;;;;;;;6.07;4.13;;;;;;;7.37;100.00;97842.81;5114990;27;20053;-79
2022/09/21 00:28:39;;;;;;;11.57;4.05;;;;;;;7.29;100.00;97840.50;5114993;27;20012;-79
2022/09/21 00:31:06;;;;;;;5.82;4.00;;;;;;;7.33;100.00;97839.44;5114871;27;20470;-79
2022/09/21 00:33:33;;;;;;;6.93;3.90;;;;;;;7.27;100.00;97844.16;5114524;27;20118;-79
2022/09/21 00:36:06;;;;;;;4.70;3.88;;;;;;;7.23;100.00;97838.09;5114427;27;20028;-79
2022/09/21 00:38:32;;;;;;;6.10;4.05;;;;;;;7.33;100.00;97859.84;5133036;27;20023;-79
2022/09/21 00:40:59;;;;;;;6.95;4.18;;;;;;;7.26;100.00;97848.59;5114818;27;20555;-78
2022/09/21 00:43:25;;;;;;;4.60;3.70;;;;;;;7.26;100.00;97850.44;5097418;27;20091;-79
2022/09/21 00:45:56;;;;;;;6.00;4.10;;;;;;;7.24;100.00;97850.47;5131641;27;20046;-79
2022/09/21 00:48:21;;;;;;;6.68;4.35;;;;;;;7.18;100.00;97837.44;5114199;27;20045;-79
2022/09/21 00:50:50;;;;;;;5.28;3.83;;;;;;;7.22;100.00;97848.81;5114499;27;20030;-78
2022/09/21 00:53:16;;;;;;;5.78;4.13;;;;;;;7.16;100.00;97838.44;5114128;27;20058;-78
2022/09/21 00:55:49;;;;;;;8.65;4.53;;;;;;;7.16;100.00;97857.94;5097685;27;20505;-79
2022/09/21 00:58:18;;;;;;;5.80;3.95;;;;;;;7.21;100.00;97863.03;5114121;27;20034;-79
2022/09/21 01:00:44;;;;;;;6.38;4.00;;;;;;;7.19;100.00;97859.59;5114466;27;20486;-79
2022/09/21 01:03:11;;;;;;;5.45;4.00;;;;;;;7.15;100.00;97847.34;5114280;27;20051;-80
2022/09/21 01:05:37;;;;;;;6.97;4.25;;;;;;;7.06;100.00;97841.50;5114248;27;20036;-80
2022/09/21 01:08:04;;;;;;;11.55;4.05;;;;;;;6.97;100.00;97841.91;5097353;27;20027;-79
2022/09/21 01:10:39;;;;;;;6.13;4.03;;;;;;;6.94;100.00;97846.50;5096921;28;20034;-79
2022/09/21 01:13:11;;;;;;;10.45;4.50;;;;;;;6.83;100.00;97846.94;5097333;27;20050;-79
2022/09/21 01:16:03;;;;;;;9.77;4.90;;;;;;;6.75;100.00;97838.44;5134511;27;20088;-82
2022/09/21 01:18:29;;;;;;;14.38;5.32;;;;;;;6.73;100.00;97847.41;5130791;27;20569;-83
2022/09/21 01:21:06;;;;;;;8.57;4.75;;;;;;;6.66;100.00;97845.91;5134879;27;20083;-83
2022/09/21 01:23:47;;;;;;;9.65;5.13;;;;;;;6.70;100.00;97852.84;5112780;28;20054;-83
2022/09/21 01:26:22;;;;;;;12.90;5.53;;;;;;;6.66;100.00;97848.56;5121806;28;20036;-82
2022/09/21 01:29:31;;;;;;;11.73;4.60;;;;;;;6.57;100.00;97841.84;5114624;28;20016;-82
2022/09/21 01:32:08;;;;;;;8.50;4.95;;;;;;;6.65;100.00;97855.69;5079604;28;20456;-82
2022/09/21 01:34:38;;;;;;;6.55;4.45;;;;;;;6.67;100.00;97858.28;5113987;28;20024;-82
2022/09/21 01:37:08;;;;;;;7.97;5.00;;;;;;;6.76;100.00;97863.22;5101499;28;20029;-82
2022/09/21 01:39:35;;;;;;;6.05;4.45;;;;;;;6.71;100.00;97855.44;5096043;28;20064;-82
2022/09/21 01:42:03;;;;;;;6.70;4.57;;;;;;;6.76;100.00;97864.09;5102924;28;20046;-82
2022/09/21 01:44:32;;;;;;;7.35;4.22;;;;;;;6.69;100.00;97854.63;5093179;28;20034;-82
2022/09/21 01:46:59;;;;;;;6.82;4.07;;;;;;;6.64;100.00;97853.09;5115472;28;20046;-82
2022/09/21 01:49:46;;;;;;;6.10;4.20;;;;;;;6.55;100.00;97854.34;5104963;28;20027;-83
2022/09/21 01:52:38;;;;;;;7.55;5.43;;;;;;;6.61;100.00;97870.03;5104643;28;20118;-82
2022/09/21 01:55:08;;;;;;;6.67;4.63;;;;;;;6.67;100.00;97874.25;5098272;28;20433;-82
2022/09/21 01:57:38;;;;;;;6.70;4.72;;;;;;;6.66;100.00;97868.06;5093613;28;20115;-81
2022/09/21 02:00:05;;;;;;;6.35;4.65;;;;;;;6.63;100.00;97867.31;5129526;28;20027;-81
2022/09/21 02:02:36;;;;;;;7.38;5.00;;;;;;;6.59;100.00;97871.00;5097648;28;20031;-81
2022/09/21 02:05:04;;;;;;;9.60;5.03;;;;;;;6.53;100.00;97864.16;5112609;28;20069;-81
2022/09/21 02:07:31;;;;;;;5.55;3.50;;;;;;;6.63;100.00;97888.56;5112359;28;20028;-80
2022/09/21 02:09:58;;;;;;;5.00;4.00;;;;;;;6.64;100.00;97875.22;5104880;28;20399;-82
2022/09/21 02:12:23;;;;;;;4.68;3.22;;;;;;;6.62;100.00;97862.91;5100247;28;20031;-82
2022/09/21 02:14:54;;;;;;;5.03;3.20;;;;;;;6.57;100.00;97863.13;5088517;28;20043;-83
2022/09/21 02:17:33;;;;;;;5.30;3.50;;;;;;;6.46;100.00;97854.72;5116847;28;20075;-82
2022/09/21 02:20:17;;;;;;;5.75;3.10;;;;;;;6.47;100.00;97875.03;5133719;27;20035;-82
2022/09/21 02:22:59;;;;;;;9.15;3.53;;;;;;;6.41;100.00;97870.84;5110269;28;20034;-82
2022/09/21 02:25:41;;;;;;;4.05;3.60;;;;;;;6.44;100.00;97873.38;5082675;28;20036;-82
2022/09/21 02:28:24;;;;;;;8.00;4.28;;;;;;;6.46;100.00;97876.81;5099256;28;20023;-83
2022/09/21 02:31:01;;;;;;;4.05;3.15;;;;;;;6.36;100.00;97869.31;5106378;28;20205;-83
2022/09/21 02:33:38;;;;;;;6.30;3.60;;;;;;;6.37;100.00;97876.31;5070239;28;20039;-83
2022/09/21 02:36:09;;;;;;;5.70;3.50;;;;;;;6.24;100.00;97867.13;5090929;28;20038;-83
2022/09/21 02:38:34;;;;;;;9.30;4.03;;;;;;;6.20;100.00;97876.13;5082564;28;20096;-82
2022/09/21 02:41:09;;;;;;;12.88;4.30;;;;;;;6.14;100.00;97884.34;5100348;28;20035;-83
2022/09/21 02:44:07;;;;;;;9.05;4.20;;;;;;;6.11;100.00;97884.47;5108239;28;20316;-81
2022/09/21 02:46:53;;;;;;;6.88;4.30;;;;;;;6.06;100.00;97881.97;5081444;28;20130;-83
2022/09/21 02:49:30;;;;;;;5.22;4.18;;;;;;;6.05;100.00;97885.56;5076261;28;20034;-83
2022/09/21 02:52:02;;;;;;;8.02;4.15;;;;;;;6.02;100.00;97887.47;5082539;28;20062;-82
2022/09/21 02:54:30;;;;;;;6.38;4.55;;;;;;;5.99;100.00;97883.16;5099054;28;20012;-83
2022/09/21 02:56:55;;;;;;;8.27;5.00;;;;;;;6.05;100.00;97898.84;5064828;28;20403;-81
2022/09/21 02:59:22;;;;;;;14.60;4.55;;;;;;;6.06;100.00;97891.75;5073811;28;20031;-82
2022/09/21 03:01:48;;;;;;;9.23;3.72;;;;;;;6.02;100.00;97895.44;5097299;28;20020;-81
2022/09/21 03:04:15;;;;;;;8.95;3.92;;;;;;;5.91;100.00;97887.88;5065839;28;20491;-82
2022/09/21 03:06:40;;;;;;;9.57;4.38;;;;;;;5.90;100.00;97900.31;5082008;28;20060;-81
2022/09/21 03:09:06;;;;;;;11.38;4.80;;;;;;;5.89;100.00;97906.53;5086927;28;20083;-84
2022/09/21 03:11:33;;;;;;;8.57;4.88;;;;;;;5.84;100.00;97908.47;5113314;28;20058;-82
2022/09/21 03:13:59;;;;;;;9.63;5.10;;;;;;;5.94;100.00;97925.78;5070718;28;20024;-83
2022/09/21 03:16:24;;;;;;;13.27;5.53;;;;;;;6.00;100.00;97932.66;5085631;28;20030;-82
2022/09/21 03:18:50;;;;;;;8.27;5.40;;;;;;;5.96;100.00;97917.78;5077788;28;20027;-83
2022/09/21 03:21:16;;;;;;;15.50;5.00;;;;;;;5.88;100.00;97915.41;5084469;28;20097;-82
2022/09/21 03:23:42;;;;;;;8.50;5.28;;;;;;;5.87;100.00;97921.66;5120045;27;20453;-83
2022/09/21 03:26:08;;;;;;;12.57;6.35;;;;;;;5.91;100.00;97925.03;5116354;27;20027;-84
2022/09/21 03:28:33;;;;;;;12.52;5.65;;;;;;;5.91;100.00;97931.22;5118441;27;20490;-82
2022/09/21 03:30:59;;;;;;;11.82;5.68;;;;;;;6.02;100.00;97943.22;5100973;27;20029;-83
2022/09/21 03:33:24;;;;;;;8.95;5.35;;;;;;;5.98;100.00;97932.72;5101757;27;20061;-82
2022/09/21 03:35:51;;;;;;;12.95;5.57;;;;;;;6.00;100.00;97930.88;5118511;27;20045;-84
2022/09/21 03:38:17;;;;;;;8.27;4.55;;;;;;;5.95;100.00;97929.31;5118411;27;20027;-81
2022/09/21 03:40:47;;;;;;;6.40;4.03;;;;;;;5.92;100.00;97926.78;5101287;27;20026;-81
2022/09/21 03:43:14;;;;;;;6.88;4.22;;;;;;;5.81;100.00;97926.28;5118167;27;20030;-83
2022/09/21 03:45:40;;;;;;;8.48;4.45;;;;;;;5.77;100.00;97922.00;5118403;27;20026;-82
2022/09/21 03:48:06;;;;;;;9.40;5.13;;;;;;;5.66;100.00;97924.22;5101149;27;20023;-82
2022/09/21 03:50:32;;;;;;;13.52;5.38;;;;;;;5.71;100.00;97939.03;5117788;27;20027;-81
2022/09/21 03:52:58;;;;;;;9.55;5.28;;;;;;;5.67;100.00;97931.22;5117246;27;20445;-82
2022/09/21 03:55:25;;;;;;;40.33;13.07;;;;;;;5.71;100.00;97938.16;5118207;27;20466;-81
2022/09/21 03:57:51;;;;;;;22.58;8.95;;;;;;;5.79;100.00;97952.00;5135854;27;20033;-82
2022/09/21 04:00:16;;;;;;;16.40;8.80;;;;;;;5.84;100.00;97953.59;5099845;27;20035;-81
2022/09/21 04:02:42;;;;;;;25.83;8.02;;;;;;;5.81;100.00;97953.72;5116908;27;20417;-81
2022/09/21 04:05:09;;;;;;;13.70;6.43;;;;;;;5.80;100.00;97949.31;5099090;27;20474;-80
2022/09/21 04:07:35;;;;;;;17.00;7.20;;;;;;;5.70;100.00;97937.28;5099697;27;20030;-80
2022/09/21 04:10:04;;;;;;;19.77;8.23;;;;;;;5.67;100.00;97936.53;5116736;27;20463;-82
2022/09/21 04:12:30;;;;;;;11.05;6.60;;;;;;;5.64;100.00;97945.47;5117262;27;20065;-77
2022/09/21 04:14:55;;;;;;;16.90;6.65;;;;;;;5.68;100.00;97944.44;5100570;27;20118;-82
2022/09/21 04:17:21;;;;;;;10.90;6.43;;;;;;;5.72;100.00;97954.00;5100039;27;20070;-81
2022/09/21 04:19:47;;;;;;;12.30;5.70;;;;;;;5.79;100.00;97958.19;5099511;27;20031;-82
2022/09/21 04:22:13;;;;;;;11.68;6.10;;;;;;;5.87;100.00;97973.88;5100226;27;20035;-80
2022/09/21 04:24:42;;;;;;;10.90;5.63;;;;;;;5.93;100.00;97971.88;5099648;27;20058;-82
2022/09/21 04:27:09;;;;;;;17.05;5.97;;;;;;;5.90;100.00;97966.69;5116566;27;20076;-81
2022/09/21 04:29:34;;;;;;;15.93;6.35;;;;;;;5.96;100.00;97969.09;5099458;27;20027;-82
2022/09/21 04:32:00;;;;;;;15.05;5.32;;;;;;;5.92;100.00;97963.94;5117196;27;20176;-82
2022/09/21 04:34:26;;;;;;;10.77;5.55;;;;;;;5.84;100.00;97952.72;5116540;27;20023;-82
2022/09/21 04:36:54;;;;;;;12.13;4.63;;;;;;;5.82;100.00;97958.06;5099223;27;20390;-83
2022/09/21 04:39:20;;;;;;;13.02;5.65;;;;;;;5.80;100.00;97959.06;5117007;27;20027;-83
2022/09/21 04:41:46;;;;;;;19.05;6.80;;;;;;;5.71;100.00;97944.34;5115806;27;20030;-82
2022/09/21 04:44:12;;;;;;;15.68;6.65;;;;;;;5.86;100.00;97965.03;5116176;27;20019;-81
2022/09/21 04:46:37;;;;;;;17.80;5.43;;;;;;;5.92;100.00;97964.81;5116736;27;20114;-82
2022/09/21 04:49:03;;;;;;;23.05;9.10;;;;;;;5.93;100.00;97966.56;5116521;27;20428;-83
2022/09/21 04:51:28;;;;;;;14.40;6.75;;;;;;;5.82;100.00;97954.53;5116170;27;20033;-82
2022/09/21 04:53:55;;;;;;;13.00;5.93;;;;;;;5.91;100.00;97968.38;5115551;27;20019;-83
2022/09/21 04:56:20;;;;;;;8.50;4.97;;;;;;;5.91;100.00;97965.72;5116576;27;20497;-83
2022/09/21 04:58:46;;;;;;;26.95;5.80;;;;;;;6.00;100.00;97973.34;5098358;27;20031;-79
2022/09/21 05:01:12;;;;;;;11.07;5.30;;;;;;;6.11;100.00;97980.94;5097806;27;20478;-80
2022/09/21 05:03:37;;;;;;;14.10;5.85;;;;;;;6.17;100.00;97986.03;5114601;27;20058;-78
2022/09/21 05:06:03;;;;;;;14.68;5.55;;;;;;;6.26;100.00;97996.28;5114454;27;20056;-77
2022/09/21 05:11:17;;;;;;;12.32;6.18;;;;;;;6.44;100.00;97990.28;5109615;27;20042;-79
2022/09/21 05:13:44;;;;;;;9.68;5.18;;;;;;;6.74;100.00;98009.47;5114733;28;20031;-78
2022/09/21 05:16:10;;;;;;;14.32;5.32;;;;;;;7.01;100.00;98020.81;5096592;27;20019;-80
2022/09/21 05:18:36;;;;;;;12.32;5.28;;;;;;;7.29;100.00;98013.44;5114426;28;20030;-78
2022/09/21 05:21:03;;;;;;;116.00;47.28;;;;;;;7.45;100.00;98013.66;5132263;27;20474;-79
2022/09/21 05:23:29;;;;;;;11.23;6.35;;;;;;;7.58;100.00;97997.13;5114455;28;20042;-80
2022/09/21 05:25:56;;;;;;;14.50;6.63;;;;;;;7.70;100.00;97994.84;5114162;28;20023;-78
2022/09/21 05:28:22;;;;;;;21.08;12.75;;;;;;;7.63;100.00;97967.63;5097004;28;20019;-80
2022/09/21 05:31:02;;;;;;;23.90;11.10;;;;;;;7.71;100.00;97970.84;5097282;28;20023;-79
2022/09/21 05:33:29;;;;;;;14.93;6.70;;;;;;;7.83;100.00;97959.63;5097182;28;20027;-79
2022/09/21 05:36:22;;;;;;;14.77;5.93;;;;;;;8.03;100.00;97972.91;5096972;28;20106;-79
2022/09/21 05:38:48;;;;;;;13.13;5.80;;;;;;;7.95;100.00;97944.91;5132098;28;20031;-79
2022/09/21 05:41:14;;;;;;;13.38;5.82;;;;;;;8.07;100.00;97966.53;5097012;28;20118;-80
2022/09/21 05:43:40;;;;;;;20.80;5.72;;;;;;;8.34;100.00;97985.75;5096842;28;20129;-79
2022/09/21 05:46:39;;;;;;;17.33;7.72;;;;;;;8.49;100.00;97974.38;5096948;28;20023;-79
2022/09/21 05:49:18;;;;;;;14.48;7.22;;;;;;;8.73;100.00;97972.38;5094981;27;20562;-79
2022/09/21 05:51:52;;;;;;;17.67;7.25;;;;;;;8.96;100.00;97964.09;5118422;27;20027;-80
2022/09/21 05:54:41;;;;;;;19.55;8.55;;;;;;;9.06;100.00;97954.72;5136301;27;20035;-79
2022/09/21 05:57:11;;;;;;;22.20;6.80;;;;;;;9.29;100.00;97955.38;5113067;27;20568;-80
2022/09/21 06:00:00;;;;;;;21.00;11.90;;;;;;;9.57;100.00;97961.03;5117860;27;20620;-79
2022/09/21 06:02:53;;;;;;;37.13;17.20;;;;;;;9.68;100.00;97950.66;5132844;27;20023;-79
2022/09/21 06:05:19;;;;;;;;;;;;;;;9.50;100.00;97927.59;5133291;27;20459;-79
2022/09/21 06:07:44;;;;;;;30.40;17.00;;;;;;;9.52;100.00;97920.34;5117787;27;19912;-79
2022/09/21 06:10:14;;;;;;;30.92;15.63;;;;;;;9.66;100.00;97928.50;5100886;27;20504;-80
2022/09/21 06:12:39;;;;;;;20.33;12.75;;;;;;;9.77;100.00;97929.69;5117726;27;20031;-79
2022/09/21 06:15:06;;;;;;;20.40;12.57;;;;;;;9.80;100.00;97926.84;5117693;27;20027;-77
2022/09/21 06:17:32;;;;;;;17.75;9.70;;;;;;;9.88;100.00;97926.44;5116839;27;20038;-77
2022/09/21 06:19:58;;;;;;;16.92;9.65;;;;;;;10.07;100.00;97934.34;5100040;27;20502;-78
2022/09/21 06:22:23;;;;;;;14.35;8.88;;;;;;;10.07;100.00;97918.28;5117001;27;20092;-78
2022/09/21 06:24:49;;;;;;;19.60;8.20;;;;;;;10.21;100.00;97915.78;5099530;27;20108;-77
2022/09/21 06:27:14;;;;;;;14.20;8.48;;;;;;;10.19;100.00;97910.50;5099964;27;20031;-78
2022/09/21 06:29:40;;;;;;;17.92;9.50;;;;;;;10.08;100.00;97902.19;5100059;27;20035;-77
2022/09/21 06:32:05;;;;;;;17.13;9.32;;;;;;;10.14;100.00;97895.69;5116933;27;20079;-77
2022/09/21 06:34:31;;;;;;;10.23;6.70;;;;;;;10.40;100.00;97923.66;5116944;27;20023;-78
2022/09/21 06:36:57;;;;;;;11.80;6.80;;;;;;;10.30;100.00;97902.75;5116849;27;20079;-77
2022/09/21 06:39:23;;;;;;;10.93;6.57;;;;;;;10.46;100.00;97907.28;5100064;27;20410;-78
2022/09/21 06:41:48;;;;;;;10.45;5.90;;;;;;;10.66;99.65;97907.00;5116515;27;20406;-78
2022/09/21 06:44:14;;;;;;;10.35;5.85;;;;;;;10.77;99.48;97907.25;5099694;27;20110;-77
2022/09/21 06:46:39;;;;;;;8.70;5.97;;;;;;;10.69;100.00;97898.81;5116712;27;20076;-78
2022/09/21 06:49:05;;;;;;;7.45;5.45;;;;;;;10.75;100.00;97898.47;5116908;27;20466;-78
2022/09/21 06:51:31;;;;;;;7.97;5.10;;;;;;;10.91;99.28;97903.81;5116693;27;20030;-78
2022/09/21 06:53:57;;;;;;;8.07;5.22;;;;;;;10.70;97.68;97873.78;5099737;27;20019;-78
2022/09/21 06:56:24;;;;;;;12.10;5.28;;;;;;;10.66;98.38;97877.59;5099792;27;20061;-78
2022/09/21 06:58:49;;;;;;;10.98;5.50;;;;;;;10.53;99.24;97864.03;5116470;27;20034;-78
2022/09/21 07:01:15;;;;;;;8.95;4.80;;;;;;;10.61;99.51;97872.47;5099358;27;20057;-77
2022/09/21 07:03:42;;;;;;;7.43;5.10;;;;;;;10.92;98.99;97890.31;5099356;27;20031;-77
2022/09/21 07:06:10;;;;;;;9.80;5.65;;;;;;;10.88;99.48;97873.59;5116473;27;20023;-77
2022/09/21 07:08:36;;;;;;;9.45;5.40;;;;;;;10.70;100.00;97866.63;5099766;27;20550;-76
2022/09/21 07:11:02;;;;;;;17.40;9.30;;;;;;;11.03;100.00;97895.06;5099154;27;20035;-78
2022/09/21 07:13:28;;;;;;;15.15;8.15;;;;;;;11.06;100.00;97885.03;5099189;27;20067;-78
2022/09/21 07:15:54;;;;;;;18.27;11.32;;;;;;;10.93;100.00;97862.59;5099365;27;20038;-78
2022/09/21 07:18:23;;;;;;;11.45;8.00;;;;;;;10.98;100.00;97871.25;5098968;27;20027;-78
2022/09/21 07:20:48;;;;;;;21.33;11.82;;;;;;;11.11;100.00;97882.94;5099076;27;20030;-76
2022/09/21 07:23:16;;;;;;;16.77;9.82;;;;;;;11.11;100.00;97877.59;5115763;27;20040;-78
2022/09/21 07:25:43;;;;;;;17.40;8.13;;;;;;;11.05;100.00;97874.41;5098704;27;20107;-79
2022/09/21 07:28:10;;;;;;;20.58;10.02;;;;;;;11.00;100.00;97881.84;5099056;27;20114;-77
2022/09/21 07:30:36;;;;;;;15.80;8.52;;;;;;;10.94;100.00;97869.69;5115791;27;20031;-77
2022/09/21 07:33:02;;;;;;;15.40;7.90;;;;;;;10.88;100.00;97873.59;5125985;27;20027;-77
2022/09/21 07:35:28;;;;;;;25.58;9.68;;;;;;;10.98;100.00;97876.59;5098644;27;20113;-78
2022/09/21 07:37:57;;;;;;;20.70;8.32;;;;;;;11.20;100.00;97884.22;5098614;27;20184;-78
2022/09/21 07:40:22;;;;;;;31.08;10.35;;;;;;;11.56;100.00;97903.47;5098597;27;20072;-78
2022/09/21 07:42:48;;;;;;;18.77;7.75;;;;;;;11.64;100.00;97908.34;5098554;27;20339;-78
2022/09/21 07:45:14;;;;;;;11.00;6.65;;;;;;;11.81;98.77;97902.88;5115819;27;20033;-77
2022/09/21 07:47:39;;;;;;;9.80;6.30;;;;;;;11.93;97.00;97899.44;5098760;27;20023;-78
2022/09/21 07:50:05;;;;;;;17.33;8.57;;;;;;;12.17;95.06;97903.28;5115314;27;20119;-77
2022/09/21 07:52:31;;;;;;;43.75;11.38;;;;;;;12.37;93.39;97910.91;5115794;27;20031;-78
2022/09/21 07:54:56;;;;;;;21.77;11.02;;;;;;;12.79;91.03;97917.19;5098134;27;20031;-77
2022/09/21 08:00:06;;;;;;;8.38;5.65;;;;;;;13.82;84.86;97915.59;5118115;27;20079;-78
2022/09/21 08:02:32;;;;;;;23.33;13.07;;;;;;;14.08;82.36;97885.06;5098365;27;20121;-79
2022/09/21 08:04:59;;;;;;;12.13;5.82;;;;;;;14.48;79.34;97875.06;5098329;27;20478;-78
2022/09/21 08:07:27;;;;;;;5.68;4.00;;;;;;;14.69;77.14;97848.38;5115299;27;20430;-78
2022/09/21 08:09:52;;;;;;;14.77;4.45;;;;;;;14.71;75.95;97831.13;5115375;27;20466;-77
2022/09/21 08:12:19;;;;;;;9.38;6.00;;;;;;;14.54;74.90;97802.78;5097079;27;20034;-77
2022/09/21 08:14:46;;;;;;;5.47;3.78;;;;;;;14.32;74.37;97781.06;5098199;27;20054;-77
2022/09/21 08:17:15;;;;;;;6.18;3.80;;;;;;;14.01;75.41;97763.59;5097826;27;20096;-77
2022/09/21 08:19:41;;;;;;;11.32;5.22;;;;;;;14.15;75.63;97764.44;5115130;27;20027;-77
2022/09/21 08:22:06;;;;;;;8.30;4.90;;;;;;;14.36;74.73;97762.91;5098133;27;20127;-77
2022/09/21 08:24:32;;;;;;;7.55;4.70;;;;;;;14.72;73.56;97768.25;5097504;27;20489;-77
2022/09/21 08:26:58;;;;;;;8.60;5.07;;;;;;;15.12;72.22;97769.63;5114434;27;20023;-78
2022/09/21 08:29:25;;;;;;;12.25;5.63;;;;;;;15.58;71.24;97780.44;5114458;27;20023;-78
2022/09/21 08:31:52;;;;;;;15.45;7.63;;;;;;;16.05;68.87;97756.91;5114392;27;20056;-76
2022/09/21 08:34:18;;;;;;;13.32;6.13;;;;;;;15.86;68.76;97732.38;5097846;27;20027;-76
2022/09/21 08:36:44;;;;;;;9.40;4.75;;;;;;;16.17;68.02;97742.44;5097676;27;20440;-77
2022/09/21 08:39:10;;;;;;;17.27;6.10;;;;;;;16.42;66.85;97720.53;5097813;27;20434;-77
2022/09/21 08:41:39;;;;;;;34.92;6.80;;;;;;;16.60;65.69;97719.03;5114682;27;20038;-77
2022/09/21 08:44:14;;;;;;;9.73;4.90;;;;;;;17.17;63.99;97712.38;5114324;27;20031;-79
2022/09/21 08:46:42;;;;;;;14.77;5.45;;;;;;;18.45;61.12;97735.25;5097272;27;20034;-78
2022/09/21 08:49:18;;;;;;;13.25;5.10;;;;;;;19.16;57.19;97689.81;5097620;27;20410;-77
2022/09/21 08:51:49;;;;;;;9.27;4.70;;;;;;;19.15;56.99;97660.97;5097443;27;20027;-77
2022/09/21 08:54:43;;;;;;;9.65;4.75;;;;;;;20.53;53.30;97667.28;5131675;27;20118;-78
2022/09/21 08:57:11;;;;;;;12.93;4.03;;;;;;;22.11;49.37;97647.09;5114115;27;20031;-77
2022/09/21 08:59:42;;;;;;;5.20;2.90;;;;;;;21.82;48.38;97608.44;5114503;27;20035;-77
2022/09/21 09:02:26;;;;;;;6.50;3.08;;;;;;;22.09;47.95;97602.78;5097198;27;20033;-79
2022/09/21 09:05:09;;;;;;;4.20;2.30;;;;;;;23.26;45.21;97597.97;5114080;27;20101;-78
2022/09/21 09:08:07;;;;;;;3.08;2.20;;;;;;;23.26;43.74;97562.50;5114251;27;20019;-77
2022/09/21 09:10:49;;;;;;;7.45;3.10;;;;;;;22.11;45.58;97549.00;5109966;27;20418;-78
2022/09/21 09:13:33;;;;;;;;;;;;;;;22.40;44.99;97547.66;5114424;27;20026;-78
2022/09/21 09:16:01;;;;;;;7.72;3.47;;;;;;;22.31;45.41;97545.94;5113868;27;19912;-78
2022/09/21 09:18:52;;;;;;;4.18;2.20;;;;;;;23.87;42.97;97550.06;5113871;27;20497;-77
2022/09/21 09:21:36;;;;;;;3.05;2.00;;;;;;;25.30;40.10;97535.50;5090538;27;20038;-79
2022/09/21 09:24:19;;;;;;;6.18;3.08;;;;;;;26.14;37.71;97512.22;5095767;27;20051;-78
2022/09/21 09:26:51;;;;;;;4.43;2.10;;;;;;;25.40;37.51;97491.41;5113687;28;20027;-78
2022/09/21 09:29:45;;;;;;;2.70;1.70;;;;;;;25.16;37.32;97486.22;5096835;28;20027;-78
2022/09/21 09:32:14;;;;;;;2.78;1.50;;;;;;;24.69;38.31;97470.91;5113692;28;20106;-78
2022/09/21 09:34:48;;;;;;;3.47;1.80;;;;;;;25.14;37.56;97467.22;5096643;28;20023;-78
2022/09/21 09:37:15;;;;;;;4.25;2.00;;;;;;;25.89;36.36;97464.25;5095877;28;20027;-78
2022/09/21 09:39:44;;;;;;;1.35;1.00;;;;;;;24.95;36.02;97436.81;5097473;28;20058;-79
2022/09/21 09:42:31;;;;;;;0.82;0.77;;;;;;;25.00;35.55;97434.34;5114221;28;20406;-79
2022/09/21 09:45:12;;;;;;;0.90;0.60;;;;;;;25.10;35.13;97429.47;5131397;28;20076;-79
2022/09/21 09:48:15;;;;;;;1.10;0.80;;;;;;;26.48;33.55;97448.47;5132461;28;20027;-79
2022/09/21 09:50:41;;;;;;;1.40;0.75;;;;;;;27.77;31.26;97442.41;5092704;28;20098;-78
2022/09/21 09:53:18;;;;;;;0.52;0.50;;;;;;;28.52;30.57;97437.53;5114008;28;20031;-78
2022/09/21 09:55:55;;;;;;;1.42;0.80;;;;;;;29.82;29.24;97428.50;5084233;28;20027;-79
2022/09/21 09:58:42;;;;;;;3.17;1.80;;;;;;;29.46;29.02;97415.25;5093575;28;20402;-79
2022/09/21 10:01:08;;;;;;;0.77;0.77;;;;;;;27.24;32.60;97391.81;5096497;28;20375;-78
2022/09/21 10:03:35;;;;;;;0.70;0.70;;;;;;;26.78;32.39;97375.00;5113694;28;20030;-78
2022/09/21 10:06:00;;;;;;;1.50;0.80;;;;;;;25.80;33.77;97369.47;5113370;28;20030;-77
2022/09/21 10:08:31;;;;;;;1.42;0.60;;;;;;;25.14;34.62;97356.84;5096084;28;20035;-78
2022/09/21 10:10:57;;;;;;;2.00;1.08;;;;;;;23.16;37.47;97338.88;5113577;28;20122;-78
2022/09/21 10:13:29;;;;;;;2.92;1.25;;;;;;;22.31;38.68;97314.25;5113348;28;20473;-78
2022/09/21 10:16:01;;;;;;;4.75;1.08;;;;;;;21.76;40.20;97325.88;5130261;28;20497;-78
2022/09/21 10:18:45;;;;;;;1.20;1.10;;;;;;;21.27;41.54;97329.56;5095828;28;20088;-77
2022/09/21 10:21:22;;;;;;;2.00;0.88;;;;;;;21.10;40.06;97322.38;5130231;28;20357;-77
2022/09/21 10:24:00;;;;;;;3.90;1.15;;;;;;;21.12;39.82;97331.22;5112718;28;20130;-77
2022/09/21 10:26:47;;;;;;;2.22;1.20;;;;;;;20.61;41.29;97316.69;5113096;28;20054;-79
2022/09/21 10:29:29;;;;;;;2.47;1.30;;;;;;;20.40;41.97;97318.97;5096082;28;20099;-78
2022/09/21 10:32:11;;;;;;;3.65;1.98;;;;;;;20.39;42.61;97326.31;5092572;28;20092;-78
2022/09/21 10:34:39;;;;;;;2.67;1.63;;;;;;;20.21;42.27;97324.63;5113424;27;20054;-78
2022/09/21 10:37:24;;;;;;;2.38;1.20;;;;;;;20.14;42.86;97324.41;5099261;27;20023;-78
2022/09/21 10:39:50;;;;;;;2.25;1.10;;;;;;;20.00;42.72;97324.97;5099607;27;20034;-76
2022/09/21 10:42:19;;;;;;;5.15;2.65;;;;;;;19.69;44.10;97334.56;5099420;27;20027;-78
2022/09/21 10:44:46;;;;;;;1.33;1.08;;;;;;;19.46;44.82;97339.63;5099673;27;20035;-78
2022/09/21 10:47:23;;;;;;;2.17;0.90;;;;;;;19.39;44.71;97341.22;5116439;27;20462;-77
2022/09/21 10:49:59;;;;;;;2.75;1.02;;;;;;;19.04;46.40;97341.19;5116483;27;20118;-78
2022/09/21 10:52:32;;;;;;;2.30;1.17;;;;;;;18.55;48.32;97343.28;5099343;27;20025;-78
2022/09/21 10:54:58;;;;;;;7.72;0.90;;;;;;;18.14;48.06;97341.00;5116291;27;20023;-78
2022/09/21 10:57:25;;;;;;;1.80;0.98;;;;;;;17.44;50.30;97323.28;5099043;27;20023;-79
2022/09/21 10:59:51;;;;;;;2.85;1.00;;;;;;;17.55;50.87;97355.63;5116136;27;20046;-78
2022/09/21 11:02:28;;;;;;;3.35;0.85;;;;;;;17.42;51.75;97363.13;5099346;27;20019;-78
2022/09/21 11:05:12;;;;;;;6.68;1.55;;;;;;;17.48;52.50;97364.38;5116478;27;20022;-78
2022/09/21 11:08:00;;;;;;;12.60;1.67;;;;;;;18.24;50.83;97399.53;5099480;27;20095;-78
2022/09/21 11:10:44;;;;;;;62.00;29.90;;;;;;;18.70;50.16;97406.00;5132996;27;20076;-78
2022/09/21 11:13:29;;;;;;;24.42;11.68;;;;;;;20.07;46.31;97418.38;5115997;27;20486;-78
2022/09/21 11:16:00;;;;;;;3.35;1.10;;;;;;;21.16;43.64;97422.38;5116461;27;20537;-78
2022/09/21 11:18:50;;;;;;;1.75;1.30;;;;;;;20.64;44.08;97395.22;5087824;28;20407;-78
2022/09/21 11:21:26;;;;;;;5.60;1.20;;;;;;;20.25;45.01;97388.47;5132744;27;20390;-78
2022/09/21 11:23:58;;;;;;;2.88;0.82;;;;;;;19.73;46.21;97384.81;5098642;27;20532;-78
2022/09/21 11:26:31;;;;;;;4.20;1.20;;;;;;;19.42;47.24;97389.78;5132811;27;20470;-78
2022/09/21 11:29:34;;;;;;;3.88;1.70;;;;;;;18.91;48.24;97388.50;5098863;27;20085;-78
2022/09/21 11:32:34;;;;;;;5.25;1.20;;;;;;;18.11;50.00;97365.66;5134760;27;20023;-78
2022/09/21 11:35:40;;;;;;;4.20;1.20;;;;;;;17.42;52.81;97365.81;5126573;27;20030;-77
2022/09/21 11:38:09;;;;;;;3.75;1.73;;;;;;;16.86;58.43;97384.50;5132495;27;20023;-77
2022/09/21 11:41:02;;;;;;;2.25;1.23;;;;;;;16.41;62.71;97400.22;5133536;27;20566;-77
2022/09/21 11:43:40;;;;;;;2.00;1.20;;;;;;;15.52;66.36;97400.75;5133545;27;20019;-77
2022/09/21 11:46:14;;;;;;;2.22;1.55;;;;;;;15.54;69.24;97431.13;5098047;27;20029;-77
2022/09/21 11:48:49;;;;;;;5.38;2.30;;;;;;;15.60;71.56;97452.19;5098439;27;20026;-83
2022/09/21 11:51:19;;;;;;;15.48;4.80;;;;;;;15.71;68.63;97452.16;5117622;27;20023;-81
2022/09/21 11:53:57;;;;;;;9.70;3.25;;;;;;;15.50;67.81;97434.22;5099574;27;20022;-83